createdAt,value
2019-05-12T00:03:10.623Z,7.67
2019-05-12T00:08:12.721Z,8.55
2019-05-12T00:13:14.816Z,7.97
2019-05-12T00:18:18.096Z,7.60
2019-05-12T00:23:26.997Z,8.20
2019-05-12T00:28:24.320Z,7.60
2019-05-12T00:33:28.253Z,7.30
2019-05-12T00:38:30.736Z,7.40
2019-05-12T00:43:32.865Z,6.80
2019-05-12T00:48:35.042Z,5.80
2019-05-12T00:53:42.719Z,6.10
2019-05-12T00:58:41.048Z,6.10
2019-05-12T01:03:43.106Z,5.45
2019-05-12T01:08:45.221Z,5.30
2019-05-12T01:13:48.562Z,4.55
2019-05-12T01:18:50.695Z,4.65
2019-05-12T01:23:57.204Z,4.42
2019-05-12T01:28:58.071Z,4.40
2019-05-12T01:34:00.212Z,4.80
2019-05-12T01:39:02.225Z,4.08
2019-05-12T01:44:04.283Z,3.70
2019-05-12T01:49:08.333Z,3.42
2019-05-12T01:54:14.892Z,3.90
2019-05-12T01:59:14.419Z,4.17
2019-05-12T02:04:18.110Z,4.08
2019-05-12T02:09:22.745Z,4.35
2019-05-12T02:14:24.812Z,3.55
2019-05-12T02:19:28.233Z,4.00
2019-05-12T02:24:30.713Z,4.35
2019-05-12T02:29:32.934Z,4.47
2019-05-12T02:34:35.277Z,4.62
2019-05-12T02:39:37.343Z,4.40
2019-05-12T02:44:39.446Z,4.95
2019-05-12T02:49:41.561Z,4.58
2019-05-12T02:54:51.997Z,4.58
2019-05-12T02:59:48.169Z,4.75
2019-05-12T03:04:54.733Z,4.67
2019-05-12T03:09:57.505Z,4.60
2019-05-12T03:14:59.570Z,5.15
2019-05-12T03:20:04.938Z,5.05
2019-05-12T03:25:15.375Z,4.35
2019-05-12T03:30:12.119Z,5.12
2019-05-12T03:35:17.433Z,5.08
2019-05-12T03:40:18.013Z,5.08
2019-05-12T03:45:20.159Z,5.00
2019-05-12T03:50:24.390Z,5.05
2019-05-12T03:55:35.472Z,5.42
2019-05-12T04:00:30.329Z,5.62
2019-05-12T04:05:34.987Z,5.15
2019-05-12T04:10:37.092Z,4.95
2019-05-12T04:15:39.505Z,4.62
2019-05-12T04:20:41.551Z,4.78
2019-05-12T04:25:52.148Z,4.87
2019-05-12T04:30:48.391Z,4.87
2019-05-12T04:35:50.383Z,4.92
2019-05-12T04:40:55.272Z,5.00
2019-05-12T04:45:56.499Z,5.65
2019-05-12T04:50:58.581Z,5.67
2019-05-12T04:56:10.665Z,4.78
2019-05-12T05:01:06.294Z,4.60
2019-05-12T05:06:08.672Z,4.75
2019-05-12T05:11:10.850Z,5.33
2019-05-12T05:16:14.437Z,4.78
2019-05-12T05:21:16.820Z,4.30
2019-05-12T05:26:24.778Z,4.67
2019-05-12T05:31:24.307Z,4.70
2019-05-12T05:36:26.572Z,4.37
2019-05-12T05:41:28.615Z,4.80
2019-05-12T05:46:30.694Z,4.85
2019-05-12T05:51:33.517Z,4.87
2019-05-12T05:56:41.779Z,4.30
2019-05-12T06:01:45.161Z,3.92
2019-05-12T06:06:50.715Z,4.78
2019-05-12T06:11:49.098Z,4.30
2019-05-12T06:16:51.180Z,4.55
2019-05-12T06:21:53.459Z,4.55
2019-05-12T06:27:00.493Z,4.60
2019-05-12T06:32:05.142Z,4.22
2019-05-12T06:37:12.159Z,3.85
2019-05-12T06:42:14.245Z,4.42
2019-05-12T06:47:14.199Z,5.05
2019-05-12T06:52:17.709Z,4.97
2019-05-12T06:57:25.203Z,4.47
2019-05-12T07:02:24.491Z,4.20
2019-05-12T07:07:27.698Z,3.60
2019-05-12T07:12:36.697Z,3.80
2019-05-12T07:17:49.731Z,4.10
2019-05-12T07:22:49.849Z,3.92
2019-05-12T07:27:54.941Z,3.55
2019-05-12T07:33:01.318Z,4.17
2019-05-12T07:38:04.567Z,3.67
2019-05-12T07:43:14.867Z,3.87
2019-05-12T07:48:13.919Z,3.30
2019-05-12T07:53:16.030Z,3.70
2019-05-12T07:58:19.343Z,3.30
2019-05-12T08:03:24.344Z,3.67
2019-05-12T08:08:26.642Z,3.20
2019-05-12T08:13:31.045Z,3.42
2019-05-12T08:18:37.061Z,3.85
2019-05-12T08:23:38.090Z,3.67
2019-05-12T08:28:40.734Z,3.83
2019-05-12T08:33:44.703Z,3.42
2019-05-12T08:38:46.794Z,3.17
2019-05-12T08:43:55.027Z,2.75
2019-05-12T08:48:57.895Z,2.60
2019-05-12T08:54:02.330Z,2.90
2019-05-12T08:59:00.944Z,2.85
2019-05-12T09:04:06.725Z,2.83
2019-05-12T09:09:07.593Z,2.60
2019-05-12T09:14:09.643Z,2.72
2019-05-12T09:19:16.689Z,2.87
2019-05-12T09:24:21.747Z,3.00
2019-05-12T09:29:19.695Z,2.90
2019-05-12T09:34:23.524Z,2.95
2019-05-12T09:39:27.152Z,2.60
2019-05-12T09:44:30.542Z,2.70
2019-05-12T09:49:39.082Z,3.22
2019-05-12T09:54:40.834Z,2.87
2019-05-12T09:59:45.808Z,2.58
2019-05-12T10:04:50.011Z,2.62
2019-05-12T10:09:55.081Z,2.40
2019-05-12T10:14:53.594Z,3.05
2019-05-12T10:19:58.101Z,3.72
2019-05-12T10:25:00.172Z,2.20
2019-05-12T10:30:11.895Z,2.60
2019-05-12T10:35:12.461Z,2.52
2019-05-12T10:40:13.911Z,2.62
2019-05-12T10:45:20.598Z,2.47
2019-05-12T10:50:23.516Z,2.72
2019-05-12T10:55:25.566Z,2.55
2019-05-12T11:00:28.209Z,2.65
2019-05-12T11:05:30.311Z,2.65
2019-05-12T11:10:32.494Z,1.90
2019-05-12T11:15:39.562Z,2.20
2019-05-12T11:20:39.624Z,2.67
2019-05-12T11:25:44.101Z,1.98
2019-05-12T11:30:46.225Z,2.17
2019-05-12T11:35:50.887Z,1.82
2019-05-12T11:40:53.853Z,2.08
2019-05-12T11:49:40.739Z,1.90
2019-05-12T11:54:47.219Z,1.95
2019-05-12T11:59:58.094Z,1.80
2019-05-12T12:04:49.488Z,1.80
2019-05-12T12:09:56.238Z,1.65
2019-05-12T12:14:54.686Z,1.82
2019-05-12T12:19:56.395Z,2.02
2019-05-12T12:25:05.124Z,1.82
2019-05-12T12:30:13.722Z,1.70
2019-05-12T12:35:07.334Z,1.70
2019-05-12T12:40:09.071Z,2.20
2019-05-12T12:45:23.774Z,1.37
2019-05-12T12:50:30.336Z,1.40
2019-05-12T12:55:29.286Z,2.27
2019-05-12T13:00:40.667Z,2.05
2019-05-12T13:05:34.658Z,2.20
2019-05-12T13:10:40.571Z,1.82
2019-05-12T13:15:39.831Z,1.47
2019-05-12T13:20:43.563Z,1.72
2019-05-12T13:25:50.539Z,1.55
2019-05-12T13:30:49.756Z,1.42
2019-05-12T13:35:55.770Z,1.30
2019-05-12T13:40:55.066Z,1.32
2019-05-12T13:45:56.791Z,1.57
2019-05-12T13:51:07.445Z,1.25
2019-05-12T13:56:04.320Z,1.50
2019-05-12T14:01:19.250Z,2.77
2019-05-12T14:06:09.156Z,1.90
2019-05-12T14:11:10.920Z,1.50
2019-05-12T14:16:12.574Z,1.45
2019-05-12T14:21:14.347Z,1.50
2019-05-12T14:26:16.015Z,1.80
2019-05-12T14:31:27.484Z,1.42
2019-05-12T14:36:26.166Z,1.20
2019-05-12T14:41:27.059Z,1.32
2019-05-12T14:46:28.407Z,1.40
2019-05-12T14:51:30.158Z,1.92
2019-05-12T14:56:33.802Z,1.37
2019-05-12T15:01:51.669Z,1.17
2019-05-12T15:06:39.141Z,1.10
2019-05-12T15:11:43.567Z,1.35
2019-05-12T15:16:45.067Z,1.10
2019-05-12T15:21:46.762Z,1.27
2019-05-12T15:26:50.693Z,1.10
2019-05-12T15:31:55.947Z,1.37
2019-05-12T15:36:56.494Z,1.20
2019-05-12T15:41:58.971Z,1.62
2019-05-12T15:47:00.670Z,1.40
2019-05-12T15:52:03.502Z,1.45
2019-05-12T15:57:05.445Z,1.27
2019-05-12T16:02:14.450Z,1.10
2019-05-12T16:07:11.196Z,1.62
2019-05-12T16:12:19.967Z,2.92
2019-05-12T16:22:03.691Z,1.50
2019-05-12T16:27:05.647Z,1.00
2019-05-12T16:32:07.355Z,1.22
2019-05-12T16:37:08.987Z,1.70
2019-05-12T16:42:10.784Z,5.45
2019-05-12T16:47:13.378Z,35.75
2019-05-12T16:52:16.527Z,17.25
2019-05-12T16:57:18.455Z,7.05
2019-05-12T17:02:20.516Z,2.50
2019-05-12T17:07:26.956Z,1.85
2019-05-12T17:12:31.868Z,1.95
2019-05-12T17:17:29.624Z,1.40
2019-05-12T17:22:31.442Z,1.50
2019-05-12T17:27:34.011Z,1.40
